Time;durP1;ratioP1;P1;durP2;ratioP2;P2;SDS_P1;SDS_P2;PMS_P1;PMS_P2;Temp;Humidity;BMP_temperature;BMP_pressure;BME280_temperature;BME280_humidity;BME280_pressure;Samples;Min_cycle;Max_cycle;Signal;HPM_P1;HPM_P2
2021/03/14 00:07:18;;;;;;;4.70;2.87;;;;;;;;;;4180799;34;20506;-50
2021/03/14 00:09:44;;;;;;;4.87;2.75;;;;;;;;;;4188497;34;20146;-51
2021/03/14 00:12:10;;;;;;;3.50;3.00;;;;;;;;;;4190613;34;20200;-48
2021/03/14 00:14:36;;;;;;;6.30;3.00;;;;;;;;;;4190655;34;20526;-47
2021/03/14 00:17:02;;;;;;;6.12;3.37;;;;;;;;;;4190657;34;20101;-48
2021/03/14 00:19:28;;;;;;;6.28;3.20;;;;;;;;;;4190508;34;20102;-48
2021/03/14 00:21:54;;;;;;;4.62;3.17;;;;;;;;;;4190351;34;20190;-47
2021/03/14 00:24:20;;;;;;;5.03;3.05;;;;;;;;;;4190986;34;20125;-48
2021/03/14 00:26:46;;;;;;;5.40;3.85;;;;;;;;;;4190635;34;20128;-48
2021/03/14 00:29:12;;;;;;;4.47;3.25;;;;;;;;;;4190248;34;20563;-48
2021/03/14 00:31:38;;;;;;;4.43;3.30;;;;;;;;;;4190406;34;20137;-51
2021/03/14 00:34:03;;;;;;;5.05;3.17;;;;;;;;;;4190685;34;20130;-47
2021/03/14 00:36:29;;;;;;;4.20;3.10;;;;;;;;;;4190478;34;20117;-48
2021/03/14 00:38:55;;;;;;;4.45;3.35;;;;;;;;;;4190694;34;20598;-47
2021/03/14 00:41:21;;;;;;;6.10;3.30;;;;;;;;;;4190314;34;20117;-48
2021/03/14 00:43:47;;;;;;;5.07;3.60;;;;;;;;;;4190647;34;20522;-48
2021/03/14 00:46:13;;;;;;;3.55;2.97;;;;;;;;;;4190565;34;20161;-47
2021/03/14 00:48:39;;;;;;;3.67;2.85;;;;;;;;;;4190605;34;20540;-48
2021/03/14 00:51:05;;;;;;;3.85;3.03;;;;;;;;;;4177332;34;20145;-50
2021/03/14 00:53:31;;;;;;;6.03;3.15;;;;;;;;;;4177768;34;20144;-49
2021/03/14 00:55:57;;;;;;;4.25;3.10;;;;;;;;;;4190295;34;20117;-47
2021/03/14 00:58:23;;;;;;;4.40;2.87;;;;;;;;;;4190485;34;20618;-48
2021/03/14 01:00:49;;;;;;;6.20;3.12;;;;;;;;;;4189413;34;20514;-48
2021/03/14 01:03:15;;;;;;;4.72;3.30;;;;;;;;;;4177556;34;20122;-47
2021/03/14 01:05:41;;;;;;;4.05;3.15;;;;;;;;;;4189643;34;20114;-53
2021/03/14 01:08:07;;;;;;;4.60;3.45;;;;;;;;;;4165974;34;20083;-49
2021/03/14 01:10:33;;;;;;;4.60;3.12;;;;;;;;;;4189765;34;20152;-48
2021/03/14 01:12:59;;;;;;;4.57;3.60;;;;;;;;;;4190322;34;20133;-49
2021/03/14 01:15:25;;;;;;;4.55;3.05;;;;;;;;;;4190032;34;20221;-48
2021/03/14 01:17:51;;;;;;;4.00;3.10;;;;;;;;;;4177175;34;20118;-48
2021/03/14 01:20:18;;;;;;;5.03;3.28;;;;;;;;;;4189888;34;20106;-48
2021/03/14 01:22:44;;;;;;;4.60;3.37;;;;;;;;;;4191758;34;20126;-49
2021/03/14 01:25:11;;;;;;;4.32;3.25;;;;;;;;;;4179352;34;20125;-48
2021/03/14 01:27:37;;;;;;;5.97;3.40;;;;;;;;;;4192065;34;20154;-48
2021/03/14 01:30:04;;;;;;;7.37;3.33;;;;;;;;;;4179350;34;20103;-49
2021/03/14 01:32:30;;;;;;;4.75;3.30;;;;;;;;;;4178992;34;20211;-48
2021/03/14 01:34:56;;;;;;;6.20;3.40;;;;;;;;;;4179213;34;20125;-50
2021/03/14 01:37:24;;;;;;;5.22;3.35;;;;;;;;;;4191906;34;20638;-48
2021/03/14 01:39:50;;;;;;;4.35;3.40;;;;;;;;;;4167635;34;20459;-48
2021/03/14 01:42:24;;;;;;;4.95;3.10;;;;;;;;;;4192038;34;20099;-48
2021/03/14 01:44:50;;;;;;;6.32;3.62;;;;;;;;;;4191972;34;20097;-48
2021/03/14 01:47:16;;;;;;;5.70;3.55;;;;;;;;;;4192138;34;20446;-48
2021/03/14 01:49:41;;;;;;;5.68;3.55;;;;;;;;;;4191849;34;20109;-50
2021/03/14 01:52:07;;;;;;;4.40;3.47;;;;;;;;;;4191800;34;20124;-50
2021/03/14 01:54:33;;;;;;;4.07;3.25;;;;;;;;;;4191987;34;20209;-49
2021/03/14 01:56:59;;;;;;;4.43;3.20;;;;;;;;;;4191657;34;20122;-48
2021/03/14 01:59:25;;;;;;;3.67;3.00;;;;;;;;;;4179231;34;20210;-48
2021/03/14 02:01:51;;;;;;;5.22;3.40;;;;;;;;;;4191290;34;20101;-48
2021/03/14 02:04:17;;;;;;;6.32;3.35;;;;;;;;;;4178664;34;20103;-48
2021/03/14 02:06:43;;;;;;;6.30;3.87;;;;;;;;;;4191227;34;20101;-48
2021/03/14 02:09:09;;;;;;;6.55;3.65;;;;;;;;;;4191902;34;20558;-47
2021/03/14 02:11:36;;;;;;;6.50;3.83;;;;;;;;;;4191342;34;20121;-48
2021/03/14 02:14:03;;;;;;;8.05;3.58;;;;;;;;;;4179040;34;20250;-48
2021/03/14 02:16:35;;;;;;;7.12;3.53;;;;;;;;;;4178941;34;20149;-50
2021/03/14 02:19:03;;;;;;;7.62;3.22;;;;;;;;;;4179148;34;20138;-49
2021/03/14 02:21:32;;;;;;;5.72;3.12;;;;;;;;;;4191462;34;20613;-47
2021/03/14 02:24:13;;;;;;;5.55;3.83;;;;;;;;;;4191883;34;20144;-48
2021/03/14 02:26:45;;;;;;;5.43;3.75;;;;;;;;;;4179109;34;20102;-48
2021/03/14 02:29:18;;;;;;;6.03;3.65;;;;;;;;;;4191916;34;20109;-48
2021/03/14 02:31:45;;;;;;;4.95;3.92;;;;;;;;;;4167009;34;20118;-48
2021/03/14 02:34:12;;;;;;;5.65;4.05;;;;;;;;;;4179247;34;20108;-49
2021/03/14 02:36:40;;;;;;;5.90;3.87;;;;;;;;;;4178661;34;20175;-48
2021/03/14 02:39:08;;;;;;;6.62;3.65;;;;;;;;;;4179317;34;20502;-49
2021/03/14 02:41:34;;;;;;;5.85;3.97;;;;;;;;;;4178671;34;20518;-49
2021/03/14 02:44:00;;;;;;;5.05;3.62;;;;;;;;;;4179046;34;20521;-49
2021/03/14 02:46:27;;;;;;;4.85;3.17;;;;;;;;;;4167536;34;20189;-48
2021/03/14 02:48:54;;;;;;;7.25;3.33;;;;;;;;;;4178891;34;20626;-47
2021/03/14 02:51:20;;;;;;;7.30;3.87;;;;;;;;;;4178688;34;20466;-48
2021/03/14 02:53:46;;;;;;;5.80;3.90;;;;;;;;;;4191680;34;20124;-48
2021/03/14 02:56:11;;;;;;;4.22;3.33;;;;;;;;;;4167264;34;20146;-50
2021/03/14 02:58:37;;;;;;;6.37;4.45;;;;;;;;;;4167467;34;20118;-48
2021/03/14 03:01:03;;;;;;;4.30;3.78;;;;;;;;;;4178271;34;20204;-48
2021/03/14 03:03:29;;;;;;;5.03;3.75;;;;;;;;;;4191464;34;20201;-48
2021/03/14 03:05:59;;;;;;;3.70;3.25;;;;;;;;;;4178631;34;20135;-47
2021/03/14 03:08:29;;;;;;;7.10;4.18;;;;;;;;;;4178796;34;20520;-47
2021/03/14 03:10:57;;;;;;;6.65;3.80;;;;;;;;;;4167068;34;20103;-51
2021/03/14 03:13:23;;;;;;;4.25;3.20;;;;;;;;;;4191487;34;20124;-51
2021/03/14 03:15:49;;;;;;;5.15;3.55;;;;;;;;;;4178580;34;20129;-48
2021/03/14 03:18:15;;;;;;;4.80;3.33;;;;;;;;;;4178674;34;20136;-48
2021/03/14 03:20:41;;;;;;;3.95;3.33;;;;;;;;;;4191100;34;20114;-49
2021/03/14 03:23:07;;;;;;;5.35;3.50;;;;;;;;;;4167242;34;20137;-49
2021/03/14 03:25:33;;;;;;;3.90;3.25;;;;;;;;;;4178694;34;20182;-50
2021/03/14 03:27:59;;;;;;;3.67;3.20;;;;;;;;;;4178657;34;20502;-48
2021/03/14 03:30:26;;;;;;;8.93;3.35;;;;;;;;;;4191226;34;20108;-48
2021/03/14 03:32:52;;;;;;;4.15;3.50;;;;;;;;;;4178248;34;20467;-48
2021/03/14 03:35:19;;;;;;;7.93;3.42;;;;;;;;;;4191267;34;20118;-48
2021/03/14 03:37:46;;;;;;;6.30;3.42;;;;;;;;;;4191348;34;20113;-49
2021/03/14 03:40:13;;;;;;;5.97;4.32;;;;;;;;;;4191150;34;20098;-51
2021/03/14 03:43:06;;;;;;;4.25;3.12;;;;;;;;;;4177832;34;20610;-49
2021/03/14 03:45:35;;;;;;;6.37;3.40;;;;;;;;;;4164895;34;20130;-48
2021/03/14 03:48:01;;;;;;;5.18;3.40;;;;;;;;;;4176146;34;20546;-48
2021/03/14 03:50:27;;;;;;;4.70;3.62;;;;;;;;;;4175996;34;20119;-52
2021/03/14 03:52:54;;;;;;;7.43;3.97;;;;;;;;;;4178006;34;20226;-50
2021/03/14 03:55:20;;;;;;;7.28;3.55;;;;;;;;;;4178457;34;20432;-48
2021/03/14 03:57:46;;;;;;;10.23;3.80;;;;;;;;;;4167267;34;20154;-48
2021/03/14 04:00:15;;;;;;;7.72;4.18;;;;;;;;;;4178283;34;20118;-53
2021/03/14 04:02:41;;;;;;;4.95;3.55;;;;;;;;;;4190825;34;20105;-51
2021/03/14 04:05:08;;;;;;;7.97;4.25;;;;;;;;;;4190869;34;20510;-50
2021/03/14 04:07:38;;;;;;;7.20;3.10;;;;;;;;;;4177860;34;20099;-50
2021/03/14 04:10:05;;;;;;;8.65;4.05;;;;;;;;;;4190811;34;20205;-48
2021/03/14 04:12:31;;;;;;;4.43;3.33;;;;;;;;;;4155494;34;20205;-50
2021/03/14 04:14:57;;;;;;;6.87;3.80;;;;;;;;;;4190602;34;20145;-52
2021/03/14 04:17:23;;;;;;;5.37;3.42;;;;;;;;;;4178379;34;20138;-51
2021/03/14 04:19:48;;;;;;;5.43;3.35;;;;;;;;;;4178366;34;20141;-49
2021/03/14 04:22:14;;;;;;;5.12;2.90;;;;;;;;;;4166638;34;20098;-49
2021/03/14 04:24:40;;;;;;;5.15;3.58;;;;;;;;;;4178116;34;20106;-50
2021/03/14 04:27:06;;;;;;;5.85;3.45;;;;;;;;;;4177994;34;20563;-52
2021/03/14 04:29:32;;;;;;;5.15;3.28;;;;;;;;;;4155666;34;20447;-48
2021/03/14 04:31:58;;;;;;;6.10;3.78;;;;;;;;;;4166610;34;20188;-50
2021/03/14 04:34:24;;;;;;;4.65;3.25;;;;;;;;;;4163987;34;20210;-52
2021/03/14 04:36:50;;;;;;;4.57;3.33;;;;;;;;;;4184188;34;20151;-52
2021/03/14 04:39:16;;;;;;;4.12;3.53;;;;;;;;;;4166546;34;20245;-50
2021/03/14 04:41:43;;;;;;;7.37;3.50;;;;;;;;;;4177450;34;20113;-50
2021/03/14 04:44:09;;;;;;;5.20;3.42;;;;;;;;;;4177895;34;20129;-49
2021/03/14 04:46:36;;;;;;;5.35;3.60;;;;;;;;;;4190110;34;20545;-51
2021/03/14 04:49:02;;;;;;;7.57;3.40;;;;;;;;;;4166660;34;20218;-48
2021/03/14 04:51:29;;;;;;;5.78;3.30;;;;;;;;;;4177762;34;20197;-52
2021/03/14 04:53:58;;;;;;;5.03;3.15;;;;;;;;;;4166236;34;20110;-48
2021/03/14 04:56:25;;;;;;;6.30;3.78;;;;;;;;;;4179362;34;20189;-51
2021/03/14 04:58:51;;;;;;;5.80;4.00;;;;;;;;;;4180071;34;20105;-50
2021/03/14 05:01:18;;;;;;;3.95;3.00;;;;;;;;;;4179499;34;20117;-48
2021/03/14 05:03:45;;;;;;;5.75;3.60;;;;;;;;;;4179798;34;20127;-50
2021/03/14 05:06:11;;;;;;;8.60;3.37;;;;;;;;;;4179633;34;20133;-48
2021/03/14 05:08:37;;;;;;;5.72;3.15;;;;;;;;;;4179634;34;20125;-49
2021/03/14 05:11:03;;;;;;;7.53;3.17;;;;;;;;;;4179421;34;20125;-49
2021/03/14 05:13:29;;;;;;;6.07;3.40;;;;;;;;;;4168273;34;20118;-49
2021/03/14 05:15:55;;;;;;;5.00;3.70;;;;;;;;;;4179276;34;20142;-51
2021/03/14 05:18:20;;;;;;;5.93;3.28;;;;;;;;;;4179433;34;20106;-48
2021/03/14 05:20:46;;;;;;;6.95;3.67;;;;;;;;;;4179227;34;20103;-49
2021/03/14 05:23:13;;;;;;;5.43;3.60;;;;;;;;;;4179556;34;20202;-49
2021/03/14 05:25:39;;;;;;;6.53;4.32;;;;;;;;;;4179554;34;20281;-48
2021/03/14 05:28:05;;;;;;;8.18;3.55;;;;;;;;;;4192549;34;20491;-50
2021/03/14 05:30:34;;;;;;;8.52;3.83;;;;;;;;;;4179522;34;20106;-50
2021/03/14 05:32:59;;;;;;;9.43;4.32;;;;;;;;;;4178752;34;20193;-48
2021/03/14 05:35:26;;;;;;;6.37;4.12;;;;;;;;;;4178328;34;20114;-49
2021/03/14 05:37:56;;;;;;;5.18;4.03;;;;;;;;;;4191723;34;20539;-52
2021/03/14 05:40:23;;;;;;;9.68;5.37;;;;;;;;;;4192157;34;20109;-49
2021/03/14 05:42:49;;;;;;;8.75;4.45;;;;;;;;;;4192065;34;20125;-53
2021/03/14 05:45:16;;;;;;;5.72;4.05;;;;;;;;;;4179237;34;20477;-50
2021/03/14 05:47:41;;;;;;;7.00;4.43;;;;;;;;;;4192351;34;20114;-50
2021/03/14 05:50:09;;;;;;;5.32;4.15;;;;;;;;;;4192085;34;20114;-52
2021/03/14 05:52:38;;;;;;;10.35;4.95;;;;;;;;;;4192132;34;20594;-51
2021/03/14 05:55:05;;;;;;;6.25;4.20;;;;;;;;;;4191910;34;20102;-49
2021/03/14 05:57:31;;;;;;;7.80;4.65;;;;;;;;;;4179311;34;20174;-52
2021/03/14 05:59:56;;;;;;;6.12;4.32;;;;;;;;;;4179258;34;20521;-49
2021/03/14 06:02:22;;;;;;;6.78;3.97;;;;;;;;;;4167710;34;20197;-48
2021/03/14 06:04:52;;;;;;;5.35;4.50;;;;;;;;;;4167799;34;20134;-51
2021/03/14 06:07:18;;;;;;;7.40;5.12;;;;;;;;;;4178624;34;20840;-48
2021/03/14 06:09:43;;;;;;;10.38;4.55;;;;;;;;;;4192150;34;20118;-49
2021/03/14 06:12:10;;;;;;;10.15;4.80;;;;;;;;;;4179096;34;20117;-49
2021/03/14 06:14:37;;;;;;;7.20;4.35;;;;;;;;;;4191851;34;20099;-48
2021/03/14 06:17:03;;;;;;;5.70;3.80;;;;;;;;;;4191787;34;20230;-48
2021/03/14 06:19:28;;;;;;;8.15;4.72;;;;;;;;;;4192297;34;20125;-49
2021/03/14 06:22:20;;;;;;;7.68;4.65;;;;;;;;;;4191585;34;20107;-48
2021/03/14 06:24:49;;;;;;;8.85;5.20;;;;;;;;;;4191723;34;20202;-49
2021/03/14 06:27:34;;;;;;;9.50;6.20;;;;;;;;;;4191755;34;20099;-48
2021/03/14 06:30:01;;;;;;;8.40;5.57;;;;;;;;;;4179110;34;20138;-48
2021/03/14 06:32:27;;;;;;;10.45;4.62;;;;;;;;;;4191661;34;20098;-49
2021/03/14 06:35:16;;;;;;;8.32;5.07;;;;;;;;;;4191373;34;20189;-49
2021/03/14 06:37:42;;;;;;;8.35;5.65;;;;;;;;;;4178765;34;20614;-48
2021/03/14 06:40:13;;;;;;;6.22;4.97;;;;;;;;;;4178839;34;20165;-51
2021/03/14 06:42:39;;;;;;;7.15;5.35;;;;;;;;;;4178377;34;20102;-50
2021/03/14 06:45:06;;;;;;;8.23;5.50;;;;;;;;;;4178784;34;20504;-49
2021/03/14 06:47:49;;;;;;;10.45;5.00;;;;;;;;;;4191555;34;20090;-48
2021/03/14 06:50:30;;;;;;;8.60;5.35;;;;;;;;;;4191716;34;20121;-49
2021/03/14 06:53:12;;;;;;;9.30;5.75;;;;;;;;;;4191530;34;20122;-50
2021/03/14 06:55:41;;;;;;;9.68;5.62;;;;;;;;;;4178122;34;20110;-47
2021/03/14 06:58:26;;;;;;;9.18;5.00;;;;;;;;;;4191612;34;20098;-48
2021/03/14 07:01:12;;;;;;;10.15;4.95;;;;;;;;;;4191193;34;20141;-50
2021/03/14 07:03:45;;;;;;;9.90;5.20;;;;;;;;;;4191348;34;20110;-51
2021/03/14 07:06:23;;;;;;;11.12;5.57;;;;;;;;;;4190875;34;20551;-48
2021/03/14 07:08:57;;;;;;;9.77;4.75;;;;;;;;;;4177941;34;20428;-48
2021/03/14 07:11:40;;;;;;;9.35;5.18;;;;;;;;;;4169450;34;20222;-48
2021/03/14 07:14:13;;;;;;;5.00;4.50;;;;;;;;;;4178540;34;20110;-50
2021/03/14 07:16:41;;;;;;;9.00;4.80;;;;;;;;;;4178349;34;20454;-48
2021/03/14 07:19:08;;;;;;;7.40;4.55;;;;;;;;;;4166426;34;20136;-50
2021/03/14 07:21:34;;;;;;;8.75;4.65;;;;;;;;;;4178225;34;20133;-47
2021/03/14 07:24:01;;;;;;;6.32;4.97;;;;;;;;;;4191340;34;20100;-49
2021/03/14 07:26:44;;;;;;;7.95;5.20;;;;;;;;;;4166399;34;20572;-49
2021/03/14 07:29:10;;;;;;;7.72;4.62;;;;;;;;;;4178679;34;20154;-52
2021/03/14 07:31:36;;;;;;;8.55;4.90;;;;;;;;;;4190834;34;20526;-52
2021/03/14 07:34:03;;;;;;;8.10;4.65;;;;;;;;;;4191098;34;20125;-51
2021/03/14 07:36:29;;;;;;;10.85;4.57;;;;;;;;;;4190762;34;20126;-49
2021/03/14 07:38:58;;;;;;;12.95;4.60;;;;;;;;;;4191214;34;20122;-49
2021/03/14 07:41:28;;;;;;;13.82;4.85;;;;;;;;;;4178278;34;20156;-52
2021/03/14 07:43:54;;;;;;;9.13;4.75;;;;;;;;;;4191061;34;20499;-50
2021/03/14 07:46:23;;;;;;;9.63;4.85;;;;;;;;;;4190712;34;20213;-48
2021/03/14 07:48:50;;;;;;;7.30;3.80;;;;;;;;;;4178345;34;20459;-52
2021/03/14 07:51:18;;;;;;;6.75;3.83;;;;;;;;;;4178106;34;20101;-50
2021/03/14 07:53:44;;;;;;;9.57;4.03;;;;;;;;;;4191050;34;20635;-50
2021/03/14 07:56:09;;;;;;;9.07;4.05;;;;;;;;;;4178031;34;20125;-51
2021/03/14 07:58:35;;;;;;;8.65;4.22;;;;;;;;;;4190889;34;20118;-53
2021/03/14 08:01:21;;;;;;;3.80;3.40;;;;;;;;;;4177999;34;20241;-49
2021/03/14 08:03:47;;;;;;;9.15;3.65;;;;;;;;;;4191072;34;20101;-49
2021/03/14 08:06:13;;;;;;;13.15;5.15;;;;;;;;;;4190158;34;20225;-49
2021/03/14 08:08:39;;;;;;;6.95;4.28;;;;;;;;;;4190940;34;20117;-49
2021/03/14 08:11:06;;;;;;;12.93;7.97;;;;;;;;;;4177696;34;20113;-49
2021/03/14 08:13:34;;;;;;;19.62;12.27;;;;;;;;;;4191038;34;20539;-51
2021/03/14 08:16:03;;;;;;;13.57;5.85;;;;;;;;;;4177419;34;20112;-50
2021/03/14 08:18:37;;;;;;;16.25;9.10;;;;;;;;;;4190967;34;20474;-48
2021/03/14 08:21:04;;;;;;;9.25;4.50;;;;;;;;;;4190741;34;20131;-51
2021/03/14 08:23:42;;;;;;;8.05;4.45;;;;;;;;;;4190987;34;20237;-51
2021/03/14 08:26:17;;;;;;;5.35;3.47;;;;;;;;;;4177712;34;20541;-48
2021/03/14 08:29:02;;;;;;;3.47;2.95;;;;;;;;;;4190775;34;20256;-48
2021/03/14 08:31:41;;;;;;;6.40;3.97;;;;;;;;;;4189999;34;20533;-49
2021/03/14 08:34:09;;;;;;;10.77;8.18;;;;;;;;;;4190624;34;20086;-49
2021/03/14 08:36:39;;;;;;;12.13;7.20;;;;;;;;;;4190479;34;20130;-50
2021/03/14 08:39:25;;;;;;;14.00;7.37;;;;;;;;;;4190854;34;20241;-48
2021/03/14 08:41:58;;;;;;;11.55;5.85;;;;;;;;;;4190496;34;20213;-49
2021/03/14 08:44:31;;;;;;;11.73;5.78;;;;;;;;;;4178196;34;20105;-50
2021/03/14 08:47:02;;;;;;;16.27;8.23;;;;;;;;;;4177129;34;20185;-51
2021/03/14 08:49:28;;;;;;;7.22;5.70;;;;;;;;;;4190779;34;20106;-48
2021/03/14 08:51:54;;;;;;;12.88;6.82;;;;;;;;;;4189874;34;20101;-48
2021/03/14 08:54:36;;;;;;;10.57;6.50;;;;;;;;;;4190141;34;20217;-49
2021/03/14 08:57:10;;;;;;;7.15;5.95;;;;;;;;;;4190309;34;20531;-48
2021/03/14 08:59:36;;;;;;;14.52;5.62;;;;;;;;;;4190411;34;20133;-51
2021/03/14 09:02:03;;;;;;;6.28;3.83;;;;;;;;;;4189983;34;20120;-49
2021/03/14 09:04:33;;;;;;;13.10;3.78;;;;;;;;;;4190385;34;20117;-51
2021/03/14 09:07:09;;;;;;;7.53;3.72;;;;;;;;;;4189733;34;20499;-50
2021/03/14 09:09:36;;;;;;;5.78;3.28;;;;;;;;;;4190285;34;20107;-48
2021/03/14 09:12:09;;;;;;;12.35;3.97;;;;;;;;;;4190292;34;20106;-52
2021/03/14 09:14:44;;;;;;;7.28;3.50;;;;;;;;;;4190246;34;20133;-51
2021/03/14 09:17:12;;;;;;;7.87;3.50;;;;;;;;;;4176797;34;20346;-52
2021/03/14 09:19:46;;;;;;;6.53;3.80;;;;;;;;;;4190152;34;20116;-53
2021/03/14 09:22:14;;;;;;;6.35;4.72;;;;;;;;;;4189715;34;20125;-55
2021/03/14 09:24:47;;;;;;;11.73;6.03;;;;;;;;;;4177305;34;20122;-53
2021/03/14 09:27:35;;;;;;;7.15;4.60;;;;;;;;;;4177012;34;20138;-50
2021/03/14 09:30:08;;;;;;;6.28;3.78;;;;;;;;;;4177702;34;20118;-52
2021/03/14 09:32:37;;;;;;;8.13;3.90;;;;;;;;;;4190335;34;20130;-51
2021/03/14 09:35:25;;;;;;;7.78;4.30;;;;;;;;;;4189820;34;20505;-51
2021/03/14 09:37:56;;;;;;;12.77;4.20;;;;;;;;;;4189810;34;20432;-53
2021/03/14 09:40:24;;;;;;;8.73;5.28;;;;;;;;;;4190404;34;20266;-52
2021/03/14 09:43:15;;;;;;;6.03;3.47;;;;;;;;;;4190940;34;20126;-53
2021/03/14 09:46:10;;;;;;;8.95;2.90;;;;;;;;;;4192143;34;20209;-53
2021/03/14 09:48:36;;;;;;;5.85;3.50;;;;;;;;;;4185779;34;20101;-50
2021/03/14 09:51:03;;;;;;;3.53;2.80;;;;;;;;;;4191761;34;20153;-49
2021/03/14 09:53:30;;;;;;;6.50;2.83;;;;;;;;;;4192540;34;20106;-48
2021/03/14 09:55:58;;;;;;;5.70;2.90;;;;;;;;;;4191875;34;20374;-53
2021/03/14 09:58:25;;;;;;;5.43;3.65;;;;;;;;;;4179459;34;20438;-50
2021/03/14 10:00:52;;;;;;;7.70;5.68;;;;;;;;;;4191608;34;20123;-52
2021/03/14 10:03:21;;;;;;;8.48;6.72;;;;;;;;;;4192069;34;20131;-52
2021/03/14 10:05:49;;;;;;;11.40;5.72;;;;;;;;;;4178781;34;20432;-49
2021/03/14 10:08:17;;;;;;;9.45;6.00;;;;;;;;;;4191389;34;20539;-52
2021/03/14 10:10:43;;;;;;;10.80;5.62;;;;;;;;;;4178831;34;20136;-51
2021/03/14 10:13:09;;;;;;;6.18;4.90;;;;;;;;;;4179412;34;20214;-52
2021/03/14 10:15:35;;;;;;;5.70;4.00;;;;;;;;;;4167354;34;20562;-52
2021/03/14 10:18:02;;;;;;;6.00;3.35;;;;;;;;;;4167663;34;20145;-54
2021/03/14 10:20:29;;;;;;;6.05;3.85;;;;;;;;;;4167736;34;20102;-54
2021/03/14 10:23:02;;;;;;;6.35;4.53;;;;;;;;;;4191725;34;20515;-55
2021/03/14 10:25:32;;;;;;;11.38;8.05;;;;;;;;;;4191747;34;20113;-55
2021/03/14 10:28:09;;;;;;;6.75;5.47;;;;;;;;;;4191719;34;20110;-55
2021/03/14 10:30:35;;;;;;;6.93;5.25;;;;;;;;;;4191547;34;20195;-54
2021/03/14 10:33:01;;;;;;;5.90;3.80;;;;;;;;;;4191909;34;20188;-52
2021/03/14 10:35:27;;;;;;;5.72;4.95;;;;;;;;;;4178934;34;20118;-52
2021/03/14 10:37:53;;;;;;;4.35;3.80;;;;;;;;;;4191671;34;20474;-52
2021/03/14 10:40:23;;;;;;;5.30;3.20;;;;;;;;;;4191444;34;20145;-52
2021/03/14 10:42:49;;;;;;;6.87;3.35;;;;;;;;;;4191617;34;20101;-56
2021/03/14 10:45:16;;;;;;;3.97;2.70;;;;;;;;;;4178842;34;20142;-51
2021/03/14 10:47:43;;;;;;;4.25;2.80;;;;;;;;;;4191505;34;20168;-53
2021/03/14 10:50:20;;;;;;;8.70;2.75;;;;;;;;;;4178544;34;20133;-53
2021/03/14 10:53:05;;;;;;;4.22;2.72;;;;;;;;;;4191327;34;20120;-53
2021/03/14 10:55:31;;;;;;;5.40;2.73;;;;;;;;;;4169267;34;20095;-52
2021/03/14 10:58:07;;;;;;;5.43;3.12;;;;;;;;;;4191386;34;20181;-50
2021/03/14 11:00:34;;;;;;;5.43;2.92;;;;;;;;;;4191362;34;20657;-50
2021/03/14 11:03:09;;;;;;;6.40;2.80;;;;;;;;;;4178722;34;20209;-56
2021/03/14 11:05:35;;;;;;;4.35;2.67;;;;;;;;;;4191185;34;20272;-57
2021/03/14 11:08:02;;;;;;;7.25;3.35;;;;;;;;;;4191338;34;20212;-58
2021/03/14 11:10:27;;;;;;;4.82;3.92;;;;;;;;;;4178523;34;20102;-58
2021/03/14 11:12:53;;;;;;;7.22;5.12;;;;;;;;;;4190918;34;20122;-59
2021/03/14 11:15:24;;;;;;;10.30;5.30;;;;;;;;;;4178334;34;20126;-55
2021/03/14 11:17:50;;;;;;;4.30;3.72;;;;;;;;;;4178405;34;20100;-55
2021/03/14 11:20:18;;;;;;;5.37;3.62;;;;;;;;;;4191303;34;20110;-57
2021/03/14 11:22:44;;;;;;;6.57;3.50;;;;;;;;;;4178371;34;20118;-57
2021/03/14 11:25:12;;;;;;;5.55;3.30;;;;;;;;;;4178444;34;20589;-58
2021/03/14 11:27:38;;;;;;;4.50;3.37;;;;;;;;;;4178672;34;20100;-58
2021/03/14 11:30:05;;;;;;;8.85;2.97;;;;;;;;;;4166712;34;20101;-54
2021/03/14 11:32:31;;;;;;;6.55;2.62;;;;;;;;;;4191129;34;20502;-58
2021/03/14 11:34:57;;;;;;;7.85;3.45;;;;;;;;;;4191004;34;20185;-59
2021/03/14 11:37:23;;;;;;;4.62;2.42;;;;;;;;;;4191082;34;20113;-59
2021/03/14 11:39:49;;;;;;;8.93;3.40;;;;;;;;;;4178121;34;20125;-59
2021/03/14 11:42:15;;;;;;;3.55;2.50;;;;;;;;;;4178324;34;20522;-59
2021/03/14 11:44:41;;;;;;;7.30;2.50;;;;;;;;;;4178303;34;20129;-55
2021/03/14 11:47:07;;;;;;;7.70;2.53;;;;;;;;;;4190942;34;20217;-56
2021/03/14 11:49:33;;;;;;;3.87;2.53;;;;;;;;;;4166828;34;20554;-57
2021/03/14 11:51:59;;;;;;;5.25;2.58;;;;;;;;;;4191010;34;20176;-59
2021/03/14 11:54:25;;;;;;;6.03;2.78;;;;;;;;;;4191394;34;20677;-59
2021/03/14 11:56:51;;;;;;;5.45;3.97;;;;;;;;;;4191034;34;20121;-57
2021/03/14 11:59:17;;;;;;;8.45;5.22;;;;;;;;;;4178145;34;20191;-58
2021/03/14 12:01:43;;;;;;;5.90;5.30;;;;;;;;;;4166264;34;20185;-59
2021/03/14 12:04:09;;;;;;;11.80;6.80;;;;;;;;;;4191075;34;20194;-59
2021/03/14 12:06:35;;;;;;;6.15;3.65;;;;;;;;;;4189900;34;20101;-58
2021/03/14 12:09:03;;;;;;;6.47;3.67;;;;;;;;;;4191289;34;20565;-59
2021/03/14 12:11:29;;;;;;;6.68;3.60;;;;;;;;;;4190756;34;20133;-59
2021/03/14 12:13:57;;;;;;;5.43;2.65;;;;;;;;;;4191175;34;20456;-58
2021/03/14 12:16:23;;;;;;;3.45;2.47;;;;;;;;;;4190436;34;20537;-58
2021/03/14 12:18:49;;;;;;;6.03;3.05;;;;;;;;;;4190890;34;20125;-56
2021/03/14 12:21:15;;;;;;;6.10;3.70;;;;;;;;;;4190340;34;20130;-58
2021/03/14 12:23:41;;;;;;;6.37;3.40;;;;;;;;;;4178087;34;20118;-58
2021/03/14 12:26:07;;;;;;;4.32;2.72;;;;;;;;;;4190586;34;20197;-58
2021/03/14 12:28:33;;;;;;;4.53;2.60;;;;;;;;;;4178291;34;20134;-59
2021/03/14 12:30:59;;;;;;;8.23;2.87;;;;;;;;;;4190480;34;20109;-57
2021/03/14 12:33:25;;;;;;;4.97;2.95;;;;;;;;;;4177830;34;20106;-55
2021/03/14 12:35:51;;;;;;;4.95;2.75;;;;;;;;;;4166489;34;20143;-56
2021/03/14 12:38:18;;;;;;;3.80;2.78;;;;;;;;;;4190683;34;20150;-57
2021/03/14 12:40:46;;;;;;;6.80;3.20;;;;;;;;;;4190032;34;20189;-58
2021/03/14 12:43:16;;;;;;;6.40;2.80;;;;;;;;;;4178272;34;20278;-58
2021/03/14 12:45:42;;;;;;;5.78;3.12;;;;;;;;;;4190128;34;20097;-58
2021/03/14 12:48:09;;;;;;;5.75;2.67;;;;;;;;;;4177679;34;20189;-56
2021/03/14 12:50:35;;;;;;;4.30;3.12;;;;;;;;;;4189804;34;20519;-57
2021/03/14 12:53:01;;;;;;;3.75;2.58;;;;;;;;;;4190583;34;20121;-58
2021/03/14 12:55:27;;;;;;;5.05;2.95;;;;;;;;;;4190330;34;20125;-56
2021/03/14 12:57:53;;;;;;;3.67;2.47;;;;;;;;;;4177427;34;20194;-55
2021/03/14 13:00:22;;;;;;;3.08;2.50;;;;;;;;;;4190317;34;20185;-57
2021/03/14 13:02:48;;;;;;;4.90;2.35;;;;;;;;;;4177376;34;20185;-56
2021/03/14 13:05:14;;;;;;;4.05;2.70;;;;;;;;;;4177309;34;20125;-52
2021/03/14 13:07:40;;;;;;;4.25;2.92;;;;;;;;;;4168934;34;20114;-56
2021/03/14 13:10:07;;;;;;;3.87;2.60;;;;;;;;;;4174892;34;20439;-53
2021/03/14 13:12:33;;;;;;;6.45;2.80;;;;;;;;;;4187462;34;20122;-53
2021/03/14 13:14:59;;;;;;;5.95;3.03;;;;;;;;;;4190061;34;20122;-53
2021/03/14 13:17:25;;;;;;;4.07;2.55;;;;;;;;;;4190654;34;20134;-52
2021/03/14 13:19:51;;;;;;;6.62;2.58;;;;;;;;;;4192122;34;20233;-56
2021/03/14 13:22:17;;;;;;;3.15;2.37;;;;;;;;;;4191296;34;20110;-59
2021/03/14 13:24:43;;;;;;;3.80;2.53;;;;;;;;;;4192025;34;20118;-58
2021/03/14 13:27:09;;;;;;;6.00;3.30;;;;;;;;;;4192012;34;20178;-58
2021/03/14 13:29:35;;;;;;;5.22;4.05;;;;;;;;;;4179580;34;20110;-58
2021/03/14 13:32:01;;;;;;;7.72;5.05;;;;;;;;;;4178913;34;20140;-59
2021/03/14 13:34:27;;;;;;;8.90;6.15;;;;;;;;;;4192301;34;20127;-57
2021/03/14 13:36:53;;;;;;;10.82;6.15;;;;;;;;;;4167834;34;20106;-58
2021/03/14 13:39:22;;;;;;;7.85;6.40;;;;;;;;;;4192170;34;20198;-59
2021/03/14 13:41:48;;;;;;;8.98;4.20;;;;;;;;;;4179097;34;20547;-49
2021/03/14 13:44:14;;;;;;;5.20;4.15;;;;;;;;;;4179307;34;20193;-52
2021/03/14 13:46:40;;;;;;;5.35;3.35;;;;;;;;;;4191739;34;20210;-55
2021/03/14 13:49:06;;;;;;;5.53;3.50;;;;;;;;;;4192218;34;20098;-57
2021/03/14 13:51:33;;;;;;;8.23;3.37;;;;;;;;;;4178712;34;20106;-56
2021/03/14 13:53:59;;;;;;;4.82;3.00;;;;;;;;;;4193608;34;20132;-54
2021/03/14 13:56:25;;;;;;;4.22;2.65;;;;;;;;;;4191827;34;20291;-55
2021/03/14 13:58:51;;;;;;;7.00;3.55;;;;;;;;;;4179129;34;20612;-55
2021/03/14 14:01:17;;;;;;;3.58;2.40;;;;;;;;;;4178822;34;20194;-56
2021/03/14 14:03:43;;;;;;;9.38;4.30;;;;;;;;;;4178996;34;20104;-56
2021/03/14 14:06:09;;;;;;;4.65;2.92;;;;;;;;;;4191080;34;20130;-54
2021/03/14 14:08:35;;;;;;;6.32;2.80;;;;;;;;;;4179102;34;20106;-56
2021/03/14 14:11:01;;;;;;;6.28;3.28;;;;;;;;;;4191671;34;20463;-54
2021/03/14 14:13:27;;;;;;;7.37;3.60;;;;;;;;;;4191743;34;20557;-55
2021/03/14 14:15:56;;;;;;;8.02;3.90;;;;;;;;;;4178668;34;20118;-57
2021/03/14 14:18:23;;;;;;;7.87;6.10;;;;;;;;;;4191782;34;20109;-57
2021/03/14 14:20:51;;;;;;;8.13;5.85;;;;;;;;;;4167019;34;20141;-57
2021/03/14 14:23:17;;;;;;;6.30;4.37;;;;;;;;;;4178546;34;20516;-58
2021/03/14 14:25:44;;;;;;;6.97;4.10;;;;;;;;;;4191100;34;20137;-58
2021/03/14 14:28:10;;;;;;;8.90;4.37;;;;;;;;;;4167406;34;20122;-59
2021/03/14 14:30:37;;;;;;;5.55;3.37;;;;;;;;;;4167387;34;20118;-58
2021/03/14 14:33:03;;;;;;;7.05;3.95;;;;;;;;;;4191633;34;20432;-58
2021/03/14 14:35:29;;;;;;;7.35;3.75;;;;;;;;;;4191558;34;20110;-55
2021/03/14 14:37:55;;;;;;;6.47;4.80;;;;;;;;;;4191638;34;20125;-58
2021/03/14 14:40:21;;;;;;;7.57;4.55;;;;;;;;;;4178815;34;20105;-56
2021/03/14 14:42:48;;;;;;;7.35;3.78;;;;;;;;;;4191494;34;20193;-54
2021/03/14 14:45:14;;;;;;;6.62;3.17;;;;;;;;;;4191432;34;20106;-54
2021/03/14 14:47:40;;;;;;;6.12;2.87;;;;;;;;;;4191401;34;20265;-54
2021/03/14 14:50:07;;;;;;;4.85;3.50;;;;;;;;;;4191522;34;20095;-54
2021/03/14 14:52:34;;;;;;;5.80;2.90;;;;;;;;;;4178367;34;20126;-55